Time;durP1;ratioP1;P1;durP2;ratioP2;P2;SDS_P1;SDS_P2;PMS_P1;PMS_P2;Temp;Humidity;BMP_temperature;BMP_pressure;BME280_temperature;BME280_humidity;BME280_pressure;Samples;Min_cycle;Max_cycle;Signal;HPM_P1;HPM_P2
2023/05/20 00:01:58;;;;;;;18.50;8.98;;;10.30;99.90;;;;;;5126892;27;20823;-88
2023/05/20 00:04:24;;;;;;;15.73;8.87;;;10.30;99.90;;;;;;5109183;27;20497;-88
2023/05/20 00:06:49;;;;;;;19.60;9.10;;;10.30;99.90;;;;;;5110442;27;20490;-90
2023/05/20 00:09:16;;;;;;;18.48;8.95;;;10.30;99.90;;;;;;5108441;27;20395;-88
2023/05/20 00:11:41;;;;;;;17.25;8.60;;;10.30;99.90;;;;;;5110207;27;20395;-89
2023/05/20 00:14:07;;;;;;;16.48;8.70;;;10.50;99.90;;;;;;5109215;27;20954;-88
2023/05/20 00:16:33;;;;;;;19.77;8.55;;;10.20;99.90;;;;;;5110068;27;20425;-90
2023/05/20 00:18:59;;;;;;;19.13;9.47;;;10.20;99.90;;;;;;5109941;27;20455;-89
2023/05/20 00:21:24;;;;;;;17.30;8.60;;;10.10;99.90;;;;;;5108762;27;20526;-89
2023/05/20 00:23:50;;;;;;;17.90;8.55;;;10.20;99.90;;;;;;5109025;27;20901;-89
2023/05/20 00:26:16;;;;;;;18.08;9.40;;;10.00;99.90;;;;;;5108658;27;20395;-88
2023/05/20 00:28:42;;;;;;;15.50;8.87;;;10.00;99.90;;;;;;5110201;28;20406;-90
2023/05/20 00:31:07;;;;;;;17.27;9.27;;;10.00;99.90;;;;;;5108505;28;20403;-90
2023/05/20 00:33:35;;;;;;;20.60;9.30;;;10.20;99.90;;;;;;5109951;28;20398;-89
2023/05/20 00:36:00;;;;;;;16.42;8.65;;;9.90;99.90;;;;;;5109019;28;20433;-89
2023/05/20 00:38:26;;;;;;;15.68;8.82;;;9.90;99.90;;;;;;5109260;28;20407;-90
2023/05/20 00:40:51;;;;;;;16.47;8.70;;;9.80;99.90;;;;;;5109491;28;20423;-88
2023/05/20 00:43:19;;;;;;;17.27;9.23;;;9.80;99.90;;;;;;5108475;28;20406;-89
2023/05/20 00:45:45;;;;;;;15.52;9.13;;;9.70;99.90;;;;;;5109889;28;20398;-89
2023/05/20 00:48:12;;;;;;;19.17;9.27;;;9.80;99.90;;;;;;5108093;28;20398;-89
2023/05/20 00:50:38;;;;;;;18.90;9.93;;;9.70;99.90;;;;;;5109718;28;20487;-88
2023/05/20 00:53:05;;;;;;;16.13;8.60;;;9.70;99.90;;;;;;5108937;28;21118;-89
2023/05/20 00:55:31;;;;;;;17.08;9.40;;;9.60;99.90;;;;;;5109606;28;20495;-89
2023/05/20 00:57:57;;;;;;;16.70;9.93;;;9.60;99.90;;;;;;5109417;28;20532;-89
2023/05/20 01:00:23;;;;;;;17.63;8.67;;;9.80;99.90;;;;;;5108517;28;20423;-89
2023/05/20 01:02:48;;;;;;;16.57;9.60;;;9.50;99.90;;;;;;5109756;28;20402;-90
2023/05/20 01:05:14;;;;;;;19.73;9.65;;;10.20;99.90;;;;;;5108208;28;20395;-89
2023/05/20 01:07:40;;;;;;;16.93;9.50;;;9.50;99.90;;;;;;5109651;28;20817;-88
2023/05/20 01:10:07;;;;;;;16.73;9.75;;;9.50;99.90;;;;;;5108096;28;20397;-88
2023/05/20 01:12:48;;;;;;;19.33;10.20;;;9.40;99.90;;;;;;5109178;28;20670;-89
2023/05/20 01:15:15;;;;;;;18.88;10.13;;;9.40;99.90;;;;;;5109362;28;20403;-89
2023/05/20 01:17:46;;;;;;;19.45;10.27;;;9.40;99.90;;;;;;5108606;28;20394;-89
2023/05/20 01:20:13;;;;;;;17.52;10.27;;;9.60;99.90;;;;;;5109056;28;20427;-88
2023/05/20 01:22:51;;;;;;;18.33;10.23;;;9.30;99.90;;;;;;5107832;28;20422;-87
2023/05/20 01:25:17;;;;;;;17.87;10.50;;;9.30;99.90;;;;;;5109096;28;20405;-90
2023/05/20 01:27:43;;;;;;;15.87;9.73;;;9.30;99.90;;;;;;5108605;28;20407;-90
2023/05/20 01:30:10;;;;;;;18.20;10.60;;;9.30;99.90;;;;;;5108989;28;20845;-89
2023/05/20 01:32:46;;;;;;;22.58;11.70;;;9.20;99.90;;;;;;5108953;28;20394;-89
2023/05/20 01:35:14;;;;;;;17.77;11.20;;;9.20;99.90;;;;;;5108613;27;20430;-89
2023/05/20 01:37:40;;;;;;;19.38;11.68;;;9.20;99.90;;;;;;5113536;27;20398;-88
2023/05/20 01:40:08;;;;;;;21.90;12.23;;;9.20;99.90;;;;;;5111386;27;20468;-90
2023/05/20 01:42:34;;;;;;;19.10;11.77;;;9.10;99.90;;;;;;5113134;27;20438;-89
2023/05/20 01:45:00;;;;;;;21.02;13.38;;;9.10;99.90;;;;;;5112010;27;20387;-89
2023/05/20 01:47:26;;;;;;;21.00;12.38;;;9.10;99.90;;;;;;5112574;27;20943;-89
2023/05/20 01:49:53;;;;;;;19.20;12.40;;;9.00;99.90;;;;;;5112581;27;20410;-88
2023/05/20 01:52:21;;;;;;;19.75;11.38;;;9.30;99.90;;;;;;5128709;27;20399;-89
2023/05/20 01:54:50;;;;;;;17.05;10.10;;;9.00;99.90;;;;;;5112648;27;20411;-88
2023/05/20 01:57:22;;;;;;;19.75;12.23;;;9.00;99.90;;;;;;5111165;27;20396;-88
2023/05/20 01:59:48;;;;;;;20.13;13.35;;;8.90;99.90;;;;;;5112767;27;20398;-87
2023/05/20 02:02:14;;;;;;;22.20;12.68;;;8.90;99.90;;;;;;5111879;27;20403;-88
2023/05/20 02:04:46;;;;;;;21.90;12.60;;;8.90;99.90;;;;;;5112393;27;20406;-89
2023/05/20 02:07:13;;;;;;;18.95;12.10;;;8.90;99.90;;;;;;5112321;27;20809;-88
2023/05/20 02:09:39;;;;;;;20.45;12.95;;;8.80;99.90;;;;;;5111134;27;20391;-88
2023/05/20 02:12:06;;;;;;;21.92;13.13;;;8.80;99.90;;;;;;5112397;27;20410;-88
2023/05/20 02:14:31;;;;;;;21.00;13.07;;;8.80;99.90;;;;;;5111252;27;20414;-89
2023/05/20 02:16:57;;;;;;;17.90;11.60;;;8.80;99.90;;;;;;5112329;27;20406;-88
2023/05/20 02:19:23;;;;;;;22.45;13.57;;;8.80;99.90;;;;;;5111018;27;20399;-88
2023/05/20 02:21:49;;;;;;;18.57;12.50;;;8.70;99.90;;;;;;5112180;27;20935;-88
2023/05/20 02:24:15;;;;;;;15.93;11.57;;;8.70;99.90;;;;;;5111374;27;20410;-88
2023/05/20 02:26:41;;;;;;;24.38;14.50;;;8.70;99.90;;;;;;5111415;27;20402;-89
2023/05/20 02:29:07;;;;;;;18.13;11.27;;;8.80;99.90;;;;;;5111911;27;20395;-89
2023/05/20 02:31:32;;;;;;;19.47;12.37;;;8.70;99.90;;;;;;5110819;27;20482;-89
2023/05/20 02:33:58;;;;;;;21.45;13.80;;;8.60;99.90;;;;;;5112102;27;20435;-89
2023/05/20 02:36:23;;;;;;;19.07;12.60;;;8.70;99.90;;;;;;5110761;27;20403;-89
2023/05/20 02:38:49;;;;;;;23.15;13.80;;;8.60;99.90;;;;;;5112346;27;20403;-89
2023/05/20 02:41:15;;;;;;;15.90;11.38;;;8.60;99.90;;;;;;5110806;27;20425;-89
2023/05/20 02:43:43;;;;;;;20.42;13.65;;;8.60;99.90;;;;;;5111367;27;20407;-90
2023/05/20 02:46:08;;;;;;;17.60;11.07;;;8.60;99.90;;;;;;5110957;27;20383;-88
2023/05/20 02:48:34;;;;;;;18.50;11.57;;;8.50;99.90;;;;;;5110737;27;20884;-90
2023/05/20 02:51:00;;;;;;;20.27;13.35;;;8.50;99.90;;;;;;5111426;27;20395;-88
2023/05/20 02:53:26;;;;;;;19.97;13.50;;;8.50;99.90;;;;;;5110523;27;20403;-90
2023/05/20 02:55:51;;;;;;;20.00;12.48;;;8.50;99.90;;;;;;5111694;27;20402;-88
2023/05/20 02:58:17;;;;;;;20.38;13.18;;;8.50;99.90;;;;;;5109974;27;20406;-88
2023/05/20 03:00:42;;;;;;;15.53;10.97;;;8.50;99.90;;;;;;5111122;27;20427;-89
2023/05/20 03:03:09;;;;;;;17.33;12.47;;;8.50;99.90;;;;;;5110552;27;20460;-88
2023/05/20 03:05:36;;;;;;;21.45;12.38;;;8.50;99.90;;;;;;5110763;27;20765;-88
2023/05/20 03:08:09;;;;;;;19.52;12.10;;;8.40;99.90;;;;;;5111177;27;20406;-89
2023/05/20 03:10:36;;;;;;;16.45;12.23;;;8.40;99.90;;;;;;5109683;27;20401;-89
2023/05/20 03:13:03;;;;;;;18.23;11.60;;;8.50;99.90;;;;;;5111290;27;20506;-89
2023/05/20 03:15:29;;;;;;;17.90;12.15;;;8.50;99.90;;;;;;5109577;27;20399;-88
2023/05/20 03:17:55;;;;;;;17.80;11.73;;;8.50;99.90;;;;;;5110615;27;20761;-89
2023/05/20 03:20:20;;;;;;;15.20;9.95;;;8.50;99.90;;;;;;5110098;27;20709;-88
2023/05/20 03:22:46;;;;;;;16.13;11.50;;;8.50;99.90;;;;;;5127724;27;20399;-89
2023/05/20 03:25:12;;;;;;;16.52;10.68;;;8.50;99.90;;;;;;5110267;27;20411;-89
2023/05/20 03:27:37;;;;;;;14.65;11.10;;;8.50;99.90;;;;;;5109424;27;20438;-88
2023/05/20 03:30:04;;;;;;;16.43;10.30;;;8.50;99.90;;;;;;5110902;27;20901;-89
2023/05/20 03:32:29;;;;;;;14.20;9.38;;;8.50;99.90;;;;;;5109168;27;20926;-89
2023/05/20 03:34:56;;;;;;;17.65;10.23;;;8.50;99.90;;;;;;5110992;27;20402;-88
2023/05/20 03:37:22;;;;;;;16.17;10.05;;;8.90;99.90;;;;;;5109742;27;20390;-90
2023/05/20 03:39:48;;;;;;;14.23;9.25;;;8.50;99.90;;;;;;5110384;27;20482;-90
2023/05/20 03:42:13;;;;;;;17.05;10.93;;;8.50;99.90;;;;;;5110134;27;20414;-89
2023/05/20 03:44:39;;;;;;;18.17;10.67;;;8.50;99.90;;;;;;5109481;27;20431;-88
2023/05/20 03:47:05;;;;;;;17.10;11.13;;;8.50;99.90;;;;;;5110552;27;20463;-89
2023/05/20 03:49:30;;;;;;;16.67;10.32;;;8.50;99.90;;;;;;5108674;27;20455;-89
2023/05/20 03:51:56;;;;;;;14.17;8.43;;;8.80;99.90;;;;;;5110391;27;20402;-89
2023/05/20 03:54:22;;;;;;;12.60;8.03;;;8.60;99.90;;;;;;5109222;27;20409;-89
2023/05/20 03:56:48;;;;;;;13.10;7.80;;;8.60;99.90;;;;;;5110578;27;20390;-88
2023/05/20 03:59:14;;;;;;;12.00;7.75;;;8.70;99.90;;;;;;5108356;27;20471;-89
2023/05/20 04:01:39;;;;;;;10.05;6.68;;;8.80;99.90;;;;;;5109385;27;20411;-88
2023/05/20 04:04:05;;;;;;;11.13;6.83;;;8.80;99.90;;;;;;5126830;27;20900;-89
2023/05/20 04:06:31;;;;;;;9.25;6.03;;;8.90;99.90;;;;;;5109312;27;20777;-89
2023/05/20 04:08:57;;;;;;;10.25;6.15;;;9.00;99.90;;;;;;5110227;27;20447;-89
2023/05/20 04:11:23;;;;;;;9.27;5.45;;;9.00;99.90;;;;;;5108220;27;20495;-89
2023/05/20 04:13:48;;;;;;;8.70;5.30;;;9.00;99.90;;;;;;5110421;27;20838;-90
2023/05/20 04:16:14;;;;;;;7.93;5.10;;;9.20;99.90;;;;;;5109053;27;20900;-88
2023/05/20 04:18:40;;;;;;;7.63;4.53;;;9.00;99.90;;;;;;5110061;27;20434;-89
2023/05/20 04:21:06;;;;;;;6.70;4.50;;;9.40;99.90;;;;;;5109338;27;20494;-89
2023/05/20 04:23:32;;;;;;;7.65;4.85;;;9.10;99.90;;;;;;5110841;27;20440;-90
2023/05/20 04:26:01;;;;;;;7.97;4.37;;;9.10;99.90;;;;;;5113363;27;20433;-89
2023/05/20 04:28:30;;;;;;;7.10;4.53;;;9.10;99.90;;;;;;5111684;27;20393;-88
2023/05/20 04:31:03;;;;;;;8.15;4.38;;;9.10;99.90;;;;;;5113338;27;20401;-90
2023/05/20 04:33:31;;;;;;;5.80;3.60;;;9.10;99.90;;;;;;5112150;27;20796;-89
2023/05/20 04:35:58;;;;;;;6.20;4.27;;;9.10;99.90;;;;;;5112895;27;20468;-89
2023/05/20 04:38:28;;;;;;;6.07;3.60;;;9.10;99.90;;;;;;5113175;27;20479;-89
2023/05/20 04:40:56;;;;;;;6.53;3.78;;;9.10;99.90;;;;;;5112275;27;20961;-89
2023/05/20 04:43:23;;;;;;;7.53;3.30;;;9.20;99.90;;;;;;5130574;27;20470;-89
2023/05/20 04:45:49;;;;;;;5.25;3.70;;;9.20;99.90;;;;;;5111893;27;20409;-90
2023/05/20 04:48:15;;;;;;;5.20;3.60;;;9.20;99.90;;;;;;5113499;27;20400;-89
2023/05/20 04:50:40;;;;;;;6.13;3.63;;;9.30;99.90;;;;;;5111762;27;20478;-89
2023/05/20 04:53:07;;;;;;;5.28;3.10;;;9.30;99.90;;;;;;5113112;27;20910;-89
2023/05/20 04:55:33;;;;;;;5.83;3.10;;;9.40;99.90;;;;;;5112276;27;20400;-89
2023/05/20 04:57:58;;;;;;;5.67;3.30;;;9.50;99.90;;;;;;5112552;27;20401;-89
2023/05/20 05:00:24;;;;;;;6.78;3.17;;;9.60;99.90;;;;;;5113060;27;20425;-90
2023/05/20 05:02:50;;;;;;;4.82;2.75;;;9.70;99.90;;;;;;5111792;27;20430;-89
2023/05/20 05:05:16;;;;;;;6.80;3.00;;;9.80;99.90;;;;;;5113345;27;20392;-89
2023/05/20 05:07:41;;;;;;;5.00;2.60;;;9.90;99.90;;;;;;5111355;27;20477;-88
2023/05/20 05:10:07;;;;;;;4.72;2.13;;;10.10;99.90;;;;;;5114966;27;20393;-91
2023/05/20 05:12:33;;;;;;;4.35;2.70;;;10.20;99.90;;;;;;5116322;27;20401;-89
2023/05/20 05:14:59;;;;;;;4.47;2.53;;;10.30;99.90;;;;;;5116789;27;20764;-90
2023/05/20 05:17:24;;;;;;;3.75;2.20;;;10.40;99.90;;;;;;5116325;27;20465;-90
2023/05/20 05:19:50;;;;;;;5.00;2.20;;;10.50;99.90;;;;;;5116059;27;20492;-89
2023/05/20 05:22:15;;;;;;;4.03;2.07;;;10.70;99.90;;;;;;5116639;27;20425;-91
2023/05/20 05:24:41;;;;;;;4.32;1.90;;;10.70;99.90;;;;;;5115322;27;20397;-89
2023/05/20 05:27:07;;;;;;;4.40;1.90;;;10.90;99.90;;;;;;5116795;27;20405;-90
2023/05/20 05:29:33;;;;;;;4.60;1.90;;;11.30;99.90;;;;;;5115358;27;20883;-90
2023/05/20 05:31:58;;;;;;;3.85;1.88;;;11.10;99.90;;;;;;5116911;27;20405;-90
2023/05/20 05:34:24;;;;;;;4.22;2.00;;;11.30;99.90;;;;;;5116080;27;20716;-90
2023/05/20 05:36:50;;;;;;;4.20;1.77;;;11.30;99.90;;;;;;5115851;27;20401;-89
2023/05/20 05:39:16;;;;;;;4.35;1.52;;;11.40;99.90;;;;;;5116219;27;20400;-89
2023/05/20 05:41:41;;;;;;;3.85;1.50;;;11.50;99.90;;;;;;5115134;27;20427;-89
2023/05/20 05:44:07;;;;;;;3.87;1.60;;;11.70;99.90;;;;;;5116546;27;20389;-89
2023/05/20 05:46:33;;;;;;;3.70;1.48;;;12.00;99.90;;;;;;5115060;27;20488;-90
2023/05/20 05:48:58;;;;;;;5.03;1.50;;;12.10;99.90;;;;;;5116482;27;20453;-91
2023/05/20 05:51:26;;;;;;;3.63;1.40;;;12.10;99.90;;;;;;5115519;27;20458;-90
2023/05/20 05:53:52;;;;;;;3.70;1.23;;;12.00;99.90;;;;;;5116716;27;20743;-89
2023/05/20 05:56:18;;;;;;;4.03;1.17;;;12.00;99.90;;;;;;5115640;27;20484;-89
2023/05/20 05:58:44;;;;;;;4.53;1.20;;;11.90;99.90;;;;;;5115522;27;20716;-89
2023/05/20 06:01:10;;;;;;;4.28;1.50;;;11.90;99.90;;;;;;5116205;27;20812;-91
2023/05/20 06:03:36;;;;;;;3.63;1.23;;;11.90;99.90;;;;;;5115282;27;20389;-91
2023/05/20 06:06:01;;;;;;;3.47;1.00;;;12.00;99.90;;;;;;5116428;27;20941;-90
2023/05/20 06:08:27;;;;;;;3.15;0.95;;;12.30;99.90;;;;;;5114965;27;20404;-90
2023/05/20 06:10:53;;;;;;;3.20;1.23;;;12.70;99.90;;;;;;5116019;27;20408;-91
2023/05/20 06:13:19;;;;;;;3.90;1.10;;;13.30;99.90;;;;;;5115658;27;20411;-90
2023/05/20 06:15:45;;;;;;;2.88;0.90;;;13.60;99.90;;;;;;5115115;27;20405;-90
2023/05/20 06:18:11;;;;;;;2.33;0.93;;;13.80;99.90;;;;;;5115901;27;20740;-91
2023/05/20 06:20:37;;;;;;;2.78;0.88;;;14.30;99.90;;;;;;5114358;27;20907;-90
2023/05/20 06:23:03;;;;;;;2.80;0.70;;;14.20;99.90;;;;;;5132881;27;20408;-91
2023/05/20 06:25:28;;;;;;;3.17;0.68;;;14.30;99.90;;;;;;5114395;27;20467;-90
2023/05/20 06:27:54;;;;;;;2.97;0.70;;;14.20;99.90;;;;;;5116034;27;20393;-91
2023/05/20 06:30:20;;;;;;;2.73;0.50;;;14.30;99.90;;;;;;5114856;27;20453;-90
2023/05/20 06:32:45;;;;;;;2.60;0.60;;;14.70;99.90;;;;;;5115676;27;20432;-92
2023/05/20 06:35:11;;;;;;;2.17;0.60;;;14.80;99.90;;;;;;5115059;27;20405;-90
2023/05/20 06:37:37;;;;;;;3.20;0.63;;;15.00;99.90;;;;;;5115194;27;20393;-90
2023/05/20 06:40:03;;;;;;;3.78;0.50;;;14.80;99.90;;;;;;5115127;27;20448;-93
2023/05/20 06:42:29;;;;;;;2.50;0.45;;;14.70;99.90;;;;;;5114700;27;20393;-90
2023/05/20 06:44:54;;;;;;;2.38;0.50;;;14.90;99.90;;;;;;5115487;27;20445;-91
2023/05/20 06:47:20;;;;;;;2.37;0.70;;;15.00;99.90;;;;;;5114392;27;20409;-89
2023/05/20 06:49:45;;;;;;;3.30;0.50;;;15.10;99.90;;;;;;5115492;27;20390;-90
2023/05/20 06:52:11;;;;;;;1.90;0.40;;;15.10;99.90;;;;;;5114545;27;20424;-89
2023/05/20 06:54:40;;;;;;;2.20;0.50;;;15.20;99.90;;;;;;5114623;27;20406;-91
2023/05/20 06:57:09;;;;;;;2.17;0.40;;;15.30;99.90;;;;;;5114658;27;20400;-90
2023/05/20 06:59:36;;;;;;;2.03;0.50;;;15.50;98.90;;;;;;5113988;27;20432;-91
2023/05/20 07:02:02;;;;;;;2.05;0.40;;;15.60;99.50;;;;;;5114969;27;20540;-91
2023/05/20 07:04:28;;;;;;;2.63;0.50;;;15.50;97.90;;;;;;5114119;27;20952;-93
2023/05/20 07:06:54;;;;;;;2.08;0.57;;;15.90;99.40;;;;;;5115146;27;20400;-91
2023/05/20 07:09:20;;;;;;;1.85;0.40;;;15.70;95.90;;;;;;5113557;27;20434;-89
2023/05/20 07:11:45;;;;;;;2.80;0.50;;;15.80;97.50;;;;;;5114380;27;20396;-91
2023/05/20 07:14:11;;;;;;;2.65;0.50;;;16.20;98.50;;;;;;5114827;27;20405;-90
2023/05/20 07:16:36;;;;;;;1.97;0.50;;;16.10;96.60;;;;;;5114214;27;20390;-91
2023/05/20 07:19:03;;;;;;;2.05;0.50;;;16.10;97.10;;;;;;5114775;27;20393;-91
2023/05/20 07:21:28;;;;;;;2.13;0.50;;;16.10;96.00;;;;;;5113306;27;20787;-92
2023/05/20 07:23:54;;;;;;;1.90;0.50;;;16.20;97.70;;;;;;5114822;27;20401;-90
2023/05/20 07:26:20;;;;;;;4.53;0.57;;;16.20;95.40;;;;;;5112927;27;20396;-89
2023/05/20 07:28:46;;;;;;;2.67;0.40;;;16.30;94.10;;;;;;5114737;27;20396;-92
2023/05/20 07:31:12;;;;;;;2.58;0.38;;;16.50;94.50;;;;;;5113975;27;21044;-91
2023/05/20 07:33:38;;;;;;;2.85;0.40;;;16.40;94.30;;;;;;5131112;27;20591;-91
2023/05/20 07:36:04;;;;;;;2.42;0.40;;;16.50;93.10;;;;;;5114223;27;20394;-90
2023/05/20 07:38:29;;;;;;;1.90;0.60;;;16.60;93.60;;;;;;5113576;27;20484;-90
2023/05/20 07:40:55;;;;;;;2.90;0.40;;;16.80;96.40;;;;;;5113799;27;20424;-90
2023/05/20 07:43:21;;;;;;;3.60;0.50;;;16.90;96.00;;;;;;5113285;27;20450;-91
2023/05/20 07:45:47;;;;;;;3.67;0.60;;;17.10;92.60;;;;;;5114662;27;20894;-90
2023/05/20 07:48:13;;;;;;;2.50;0.45;;;17.40;89.50;;;;;;5112882;27;20970;-91
2023/05/20 07:50:38;;;;;;;2.30;0.40;;;17.10;89.00;;;;;;5113952;27;20390;-91
2023/05/20 07:53:05;;;;;;;3.23;0.50;;;17.10;79.10;;;;;;5113508;27;20457;-91
2023/05/20 07:55:34;;;;;;;1.88;0.40;;;17.10;84.30;;;;;;5113590;27;20409;-90
2023/05/20 07:58:00;;;;;;;1.83;0.40;;;17.20;91.10;;;;;;5114072;27;20792;-90
2023/05/20 08:00:25;;;;;;;2.23;0.60;;;17.30;90.20;;;;;;5112758;27;20413;-91
2023/05/20 08:02:51;;;;;;;2.33;0.70;;;17.30;91.50;;;;;;5114504;27;20401;-90
2023/05/20 08:05:17;;;;;;;2.37;0.50;;;17.40;95.20;;;;;;5112484;27;20436;-91
2023/05/20 08:07:42;;;;;;;2.63;0.50;;;17.50;90.20;;;;;;5113930;27;20401;-90
2023/05/20 08:10:08;;;;;;;4.63;0.67;;;17.60;93.30;;;;;;5112708;27;20409;-92
2023/05/20 08:12:34;;;;;;;2.90;0.70;;;17.80;95.20;;;;;;5113452;27;20404;-90
2023/05/20 08:14:59;;;;;;;2.78;0.43;;;17.90;93.20;;;;;;5113477;27;20449;-90
2023/05/20 08:17:25;;;;;;;3.83;0.50;;;17.90;86.90;;;;;;5112907;27;20437;-91
2023/05/20 08:19:51;;;;;;;3.17;0.60;;;18.20;81.10;;;;;;5113834;27;20443;-91
2023/05/20 08:22:16;;;;;;;2.07;0.60;;;18.00;89.50;;;;;;5112308;27;20416;-91
2023/05/20 08:24:42;;;;;;;2.88;0.45;;;18.20;92.90;;;;;;5113221;27;20405;-89
2023/05/20 08:27:08;;;;;;;2.60;0.60;;;18.50;90.10;;;;;;5112402;27;20411;-91
2023/05/20 08:29:33;;;;;;;2.10;0.50;;;18.30;82.40;;;;;;5113691;27;20440;-91
2023/05/20 08:31:59;;;;;;;3.43;0.60;;;18.30;77.80;;;;;;5112786;27;20759;-92
2023/05/20 08:34:25;;;;;;;2.15;0.50;;;18.70;83.50;;;;;;5112997;27;20432;-91
2023/05/20 08:36:50;;;;;;;2.50;0.50;;;18.50;78.20;;;;;;5113148;27;20395;-92
2023/05/20 08:39:16;;;;;;;2.75;0.50;;;18.60;83.30;;;;;;5112041;27;20910;-92
2023/05/20 08:41:42;;;;;;;2.90;0.50;;;18.80;79.00;;;;;;5113553;27;20496;-92
2023/05/20 08:44:10;;;;;;;2.00;0.50;;;18.60;74.40;;;;;;5111676;27;20404;-92
2023/05/20 08:46:36;;;;;;;4.07;0.60;;;18.70;79.10;;;;;;5113490;27;20393;-91
2023/05/20 08:49:02;;;;;;;2.33;0.47;;;18.80;82.70;;;;;;5112452;27;20903;-91
2023/05/20 08:51:31;;;;;;;3.50;0.50;;;18.90;83.40;;;;;;5113104;27;20404;-89
2023/05/20 08:53:58;;;;;;;2.47;0.52;;;19.00;74.90;;;;;;5112952;27;20400;-91
2023/05/20 08:56:26;;;;;;;1.85;0.60;;;19.10;83.30;;;;;;5112070;27;20401;-91
2023/05/20 08:58:52;;;;;;;3.08;0.50;;;19.40;72.60;;;;;;5113629;27;20385;-89
2023/05/20 09:01:18;;;;;;;3.15;0.50;;;19.20;70.80;;;;;;5111747;27;20425;-91
2023/05/20 09:03:44;;;;;;;3.17;0.60;;;19.30;73.00;;;;;;5113524;27;20400;-93
2023/05/20 09:06:09;;;;;;;2.70;0.60;;;19.40;79.10;;;;;;5112220;27;20401;-91
2023/05/20 09:08:36;;;;;;;3.20;0.60;;;19.60;73.90;;;;;;5112902;27;20397;-91
2023/05/20 09:11:02;;;;;;;3.58;0.50;;;19.50;65.50;;;;;;5112267;27;20397;-89
2023/05/20 09:13:31;;;;;;;2.55;0.40;;;19.40;63.50;;;;;;5112654;27;20393;-91
2023/05/20 09:16:00;;;;;;;2.70;0.70;;;19.60;71.50;;;;;;5113048;27;20450;-91
2023/05/20 09:18:26;;;;;;;2.80;0.50;;;19.50;66.60;;;;;;5111824;27;20393;-91
2023/05/20 09:20:52;;;;;;;1.92;0.43;;;19.70;68.40;;;;;;5113246;27;20933;-90
2023/05/20 09:23:20;;;;;;;1.70;0.40;;;19.70;65.20;;;;;;5112094;27;20521;-91
2023/05/20 09:25:49;;;;;;;2.00;0.50;;;19.80;63.40;;;;;;5113385;27;20449;-90
2023/05/20 09:28:15;;;;;;;2.60;0.60;;;19.90;64.20;;;;;;5112374;27;20550;-93
2023/05/20 09:30:40;;;;;;;1.58;0.40;;;19.90;66.70;;;;;;5112751;27;21025;-90
2023/05/20 09:33:08;;;;;;;2.47;0.40;;;20.00;64.50;;;;;;5112945;27;20397;-90
2023/05/20 09:35:36;;;;;;;2.30;0.50;;;20.30;63.20;;;;;;5111832;27;20400;-91
2023/05/20 09:38:04;;;;;;;3.15;0.50;;;20.20;69.20;;;;;;5113027;27;20397;-90
2023/05/20 09:40:30;;;;;;;2.67;0.60;;;20.40;61.00;;;;;;5111882;27;20500;-89
2023/05/20 09:43:01;;;;;;;3.27;0.60;;;20.50;64.10;;;;;;5113227;27;20446;-90
2023/05/20 09:45:27;;;;;;;3.85;0.70;;;20.70;61.20;;;;;;5129763;27;20476;-91
2023/05/20 09:47:54;;;;;;;2.65;0.50;;;20.70;58.80;;;;;;5112309;27;20484;-88
2023/05/20 09:50:22;;;;;;;2.65;0.50;;;21.00;58.90;;;;;;5112531;27;20878;-91
2023/05/20 09:52:49;;;;;;;3.33;0.60;;;21.00;61.30;;;;;;5111589;27;20400;-89
2023/05/20 09:55:20;;;;;;;4.55;0.47;;;21.00;61.10;;;;;;5112925;27;20468;-90
2023/05/20 09:57:46;;;;;;;1.85;0.50;;;21.20;65.80;;;;;;5131411;27;20497;-90
2023/05/20 10:00:16;;;;;;;1.95;0.60;;;21.30;62.60;;;;;;5116343;27;20412;-91
2023/05/20 10:02:51;;;;;;;3.72;0.50;;;21.50;60.80;;;;;;5115380;27;20389;-91
2023/05/20 10:05:21;;;;;;;2.30;0.70;;;21.70;59.60;;;;;;5132528;27;20923;-91
2023/05/20 10:08:15;;;;;;;4.25;0.52;;;21.90;60.50;;;;;;5115851;27;20426;-91
2023/05/20 10:11:20;;;;;;;4.22;0.70;;;22.10;59.60;;;;;;5103273;27;20482;-93
2023/05/20 10:14:08;;;;;;;4.28;0.70;;;22.30;55.90;;;;;;5115487;27;20400;-93
2023/05/20 10:16:36;;;;;;;4.40;0.82;;;22.20;54.50;;;;;;5115854;27;20922;-92
2023/05/20 10:19:28;;;;;;;4.05;0.85;;;22.60;55.90;;;;;;5115178;27;20845;-92
2023/05/20 10:21:57;;;;;;;3.03;0.70;;;22.50;55.90;;;;;;5116041;27;20884;-90
2023/05/20 10:24:33;;;;;;;3.60;0.60;;;22.70;54.30;;;;;;5111412;27;20406;-91
2023/05/20 10:27:01;;;;;;;3.65;0.70;;;22.80;56.60;;;;;;5111984;27;20403;-92
2023/05/20 10:29:27;;;;;;;4.70;0.90;;;22.70;54.90;;;;;;5112242;27;20437;-90
2023/05/20 10:31:53;;;;;;;4.32;0.95;;;23.20;54.70;;;;;;5111065;27;20426;-91
2023/05/20 10:34:22;;;;;;;4.63;0.80;;;23.30;53.10;;;;;;5112438;27;20418;-91
2023/05/20 10:36:53;;;;;;;3.65;0.80;;;23.40;53.50;;;;;;5110878;27;20443;-92
2023/05/20 10:39:28;;;;;;;3.17;0.70;;;23.60;52.30;;;;;;5111957;27;20407;-92
2023/05/20 10:42:08;;;;;;;3.10;0.90;;;23.90;52.30;;;;;;5111521;27;20421;-90
2023/05/20 10:44:46;;;;;;;4.55;0.88;;;24.00;52.60;;;;;;5111095;27;20398;-92
2023/05/20 10:47:12;;;;;;;4.93;1.10;;;24.10;52.90;;;;;;5112798;27;20423;-91
2023/05/20 10:49:46;;;;;;;4.45;0.70;;;24.40;50.20;;;;;;5110303;27;20975;-92
2023/05/20 10:52:16;;;;;;;3.97;1.20;;;24.40;49.80;;;;;;5112294;27;20406;-92
2023/05/20 10:54:46;;;;;;;3.88;0.85;;;24.70;50.80;;;;;;5111143;27;20498;-90
2023/05/20 10:57:12;;;;;;;5.32;1.20;;;24.90;49.10;;;;;;5111094;27;20613;-93
2023/05/20 10:59:38;;;;;;;2.90;1.00;;;25.00;48.80;;;;;;5111529;27;20437;-91
2023/05/20 11:02:03;;;;;;;4.32;0.80;;;25.00;47.90;;;;;;5110302;27;20576;-90
2023/05/20 11:04:30;;;;;;;4.65;1.10;;;24.90;48.60;;;;;;5112071;27;20474;-91
2023/05/20 11:06:57;;;;;;;4.38;1.17;;;24.90;49.10;;;;;;5109999;27;20953;-91
2023/05/20 11:09:23;;;;;;;4.38;0.90;;;25.20;47.80;;;;;;5111903;27;20765;-92
2023/05/20 11:11:51;;;;;;;5.30;1.10;;;25.40;50.00;;;;;;5110968;27;20399;-91
2023/05/20 11:14:17;;;;;;;4.43;1.10;;;25.50;47.60;;;;;;5110875;27;20399;-92
2023/05/20 11:16:43;;;;;;;3.40;0.90;;;25.80;48.50;;;;;;5111022;27;20783;-91
2023/05/20 11:19:15;;;;;;;4.20;0.93;;;25.70;46.40;;;;;;5127397;27;20395;-93
2023/05/20 11:21:47;;;;;;;5.13;1.27;;;25.80;46.70;;;;;;5111263;27;20476;-89
2023/05/20 11:24:20;;;;;;;3.20;1.00;;;26.20;46.80;;;;;;5109807;27;20489;-91
2023/05/20 11:26:46;;;;;;;3.38;0.95;;;25.90;46.60;;;;;;5111030;27;20417;-90
2023/05/20 11:29:12;;;;;;;5.40;1.50;;;26.00;46.80;;;;;;5110270;27;20912;-91
2023/05/20 11:31:38;;;;;;;3.58;1.00;;;26.40;46.10;;;;;;5110498;27;20806;-90
2023/05/20 11:34:04;;;;;;;4.50;0.90;;;26.40;44.70;;;;;;5110517;27;20399;-91
2023/05/20 11:36:29;;;;;;;5.38;1.33;;;26.30;46.60;;;;;;5109926;27;20387;-92
2023/05/20 11:38:59;;;;;;;4.40;1.20;;;26.40;45.90;;;;;;5110983;27;20387;-90
2023/05/20 11:41:25;;;;;;;5.28;1.30;;;26.40;44.70;;;;;;5109237;27;20422;-92
2023/05/20 11:43:59;;;;;;;6.43;1.43;;;26.20;44.60;;;;;;5110943;27;20409;-90
2023/05/20 11:46:25;;;;;;;4.80;1.10;;;26.10;45.50;;;;;;5109470;27;20399;-92
2023/05/20 11:48:54;;;;;;;6.32;1.20;;;26.20;46.60;;;;;;5110586;27;20395;-92
2023/05/20 11:51:27;;;;;;;5.80;1.50;;;26.70;44.90;;;;;;5110756;27;20761;-91
2023/05/20 11:54:00;;;;;;;5.18;1.42;;;26.80;45.80;;;;;;5109375;27;20403;-91
2023/05/20 11:56:29;;;;;;;5.00;1.25;;;26.90;44.30;;;;;;5110869;27;20406;-90
2023/05/20 11:58:57;;;;;;;3.80;1.20;;;27.10;47.20;;;;;;5109186;27;20901;-91
2023/05/20 12:01:23;;;;;;;4.90;1.00;;;27.40;46.00;;;;;;5127242;27;20430;-89
2023/05/20 12:03:48;;;;;;;4.87;1.20;;;27.50;43.00;;;;;;5109472;27;20402;-91
2023/05/20 12:06:16;;;;;;;4.57;1.27;;;27.50;42.80;;;;;;5109929;27;20405;-93
2023/05/20 12:08:42;;;;;;;5.18;1.38;;;27.70;44.20;;;;;;5110559;27;20402;-91
2023/05/20 12:11:07;;;;;;;4.10;1.10;;;27.50;42.30;;;;;;5109181;27;20974;-92
2023/05/20 12:13:33;;;;;;;5.10;1.27;;;27.70;42.90;;;;;;5110444;27;20494;-92
2023/05/20 12:15:59;;;;;;;4.18;1.48;;;27.80;42.60;;;;;;5108751;27;20418;-92
2023/05/20 12:18:24;;;;;;;4.40;1.60;;;27.90;42.10;;;;;;5110296;27;20409;-92
2023/05/20 12:20:50;;;;;;;5.00;1.57;;;27.90;40.60;;;;;;5108293;27;20418;-90
2023/05/20 12:23:15;;;;;;;5.38;1.40;;;28.10;42.80;;;;;;5110437;27;20468;-93
2023/05/20 12:25:41;;;;;;;3.60;1.30;;;28.40;42.80;;;;;;5108825;27;20471;-92
2023/05/20 12:28:07;;;;;;;4.77;1.67;;;28.60;41.90;;;;;;5109102;27;20394;-92
2023/05/20 12:30:33;;;;;;;4.30;1.38;;;28.70;40.20;;;;;;5109574;27;20402;-91
2023/05/20 12:32:58;;;;;;;3.53;1.30;;;28.90;39.90;;;;;;5107309;27;20402;-92
2023/05/20 12:35:35;;;;;;;4.70;1.55;;;28.90;40.50;;;;;;5109495;27;20743;-93
2023/05/20 12:38:01;;;;;;;4.95;1.40;;;28.70;39.80;;;;;;5107598;28;20402;-92
2023/05/20 12:40:26;;;;;;;4.13;1.70;;;28.90;40.00;;;;;;5108738;28;20395;-91
2023/05/20 12:42:52;;;;;;;5.60;1.80;;;28.90;40.60;;;;;;5108152;28;20430;-92
2023/05/20 12:45:18;;;;;;;4.22;1.73;;;29.10;40.50;;;;;;5109187;28;20391;-93